sensor_id;sensor_type;location;lat;lon;timestamp;pressure;altitude;pressure_sealevel;temperature;humidity
64908;BME280;51412;52.236;5.188;2022-07-18T00:01:08;102422.03;;;18.76;63.33
64908;BME280;51412;52.236;5.188;2022-07-18T00:03:34;102413.94;;;18.72;63.57
64908;BME280;51412;52.236;5.188;2022-07-18T00:06:01;102419.28;;;18.68;63.70
64908;BME280;51412;52.236;5.188;2022-07-18T00:08:27;102412.78;;;18.66;64.03
64908;BME280;51412;52.236;5.188;2022-07-18T00:10:55;102413.50;;;18.63;63.86
64908;BME280;51412;52.236;5.188;2022-07-18T00:13:22;102416.22;;;18.59;64.00
64908;BME280;51412;52.236;5.188;2022-07-18T00:15:48;102414.25;;;18.56;64.02
64908;BME280;51412;52.236;5.188;2022-07-18T00:18:14;102414.25;;;18.52;64.06
64908;BME280;51412;52.236;5.188;2022-07-18T00:20:41;102412.72;;;18.51;64.04
64908;BME280;51412;52.236;5.188;2022-07-18T00:23:08;102412.31;;;18.49;63.91
64908;BME280;51412;52.236;5.188;2022-07-18T00:25:34;102412.69;;;18.48;63.78
64908;BME280;51412;52.236;5.188;2022-07-18T00:28:02;102407.31;;;18.48;63.68
64908;BME280;51412;52.236;5.188;2022-07-18T00:30:29;102401.13;;;18.44;63.86
64908;BME280;51412;52.236;5.188;2022-07-18T00:32:55;102393.41;;;18.39;63.73
64908;BME280;51412;52.236;5.188;2022-07-18T00:35:22;102397.28;;;18.41;63.68
64908;BME280;51412;52.236;5.188;2022-07-18T00:37:48;102395.34;;;18.38;63.54
64908;BME280;51412;52.236;5.188;2022-07-18T00:40:15;102393.81;;;18.33;63.54
64908;BME280;51412;52.236;5.188;2022-07-18T00:42:41;102392.25;;;18.32;63.54
64908;BME280;51412;52.236;5.188;2022-07-18T00:45:10;102394.91;;;18.29;63.74
64908;BME280;51412;52.236;5.188;2022-07-18T00:47:36;102392.59;;;18.24;63.64
64908;BME280;51412;52.236;5.188;2022-07-18T00:50:03;102387.19;;;18.20;63.92
64908;BME280;51412;52.236;5.188;2022-07-18T00:52:32;102390.25;;;18.15;64.00
64908;BME280;51412;52.236;5.188;2022-07-18T00:54:58;102388.69;;;18.14;64.03
64908;BME280;51412;52.236;5.188;2022-07-18T00:57:25;102382.16;;;18.08;64.44
64908;BME280;51412;52.236;5.188;2022-07-18T00:59:53;102383.28;;;18.07;64.21
64908;BME280;51412;52.236;5.188;2022-07-18T01:02:39;102379.81;;;18.03;64.08
64908;BME280;51412;52.236;5.188;2022-07-18T01:05:07;102383.63;;;18.01;63.99
64908;BME280;51412;52.236;5.188;2022-07-18T01:07:33;102388.63;;;17.99;64.00
64908;BME280;51412;52.236;5.188;2022-07-18T01:10:00;102378.22;;;17.94;64.22
64908;BME280;51412;52.236;5.188;2022-07-18T01:12:27;102382.06;;;17.93;64.32
64908;BME280;51412;52.236;5.188;2022-07-18T01:14:53;102377.06;;;17.92;64.19
64908;BME280;51412;52.236;5.188;2022-07-18T01:17:21;102379.31;;;17.90;64.38
64908;BME280;51412;52.236;5.188;2022-07-18T01:19:49;102378.13;;;17.87;64.31
64908;BME280;51412;52.236;5.188;2022-07-18T01:22:19;102384.69;;;17.86;64.19
64908;BME280;51412;52.236;5.188;2022-07-18T01:24:46;102385.41;;;17.83;64.02
64908;BME280;51412;52.236;5.188;2022-07-18T01:27:14;102391.56;;;17.80;64.05
64908;BME280;51412;52.236;5.188;2022-07-18T01:29:41;102376.19;;;17.77;64.22
64908;BME280;51412;52.236;5.188;2022-07-18T01:32:08;102371.09;;;17.68;64.26
64908;BME280;51412;52.236;5.188;2022-07-18T01:34:35;102371.53;;;17.70;64.53
64908;BME280;51412;52.236;5.188;2022-07-18T01:37:02;102373.84;;;17.72;64.55
64908;BME280;51412;52.236;5.188;2022-07-18T01:39:30;102368.06;;;17.73;64.27
64908;BME280;51412;52.236;5.188;2022-07-18T01:41:57;102364.22;;;17.71;64.14
64908;BME280;51412;52.236;5.188;2022-07-18T01:44:25;102359.59;;;17.67;64.30
64908;BME280;51412;52.236;5.188;2022-07-18T01:46:52;102361.88;;;17.65;64.74
64908;BME280;51412;52.236;5.188;2022-07-18T01:49:19;102368.75;;;17.63;64.55
64908;BME280;51412;52.236;5.188;2022-07-18T01:51:46;102367.63;;;17.60;64.34
64908;BME280;51412;52.236;5.188;2022-07-18T01:54:13;102360.28;;;17.57;64.60
64908;BME280;51412;52.236;5.188;2022-07-18T01:56:41;102365.28;;;17.55;64.89
64908;BME280;51412;52.236;5.188;2022-07-18T01:59:08;102364.09;;;17.56;64.85
64908;BME280;51412;52.236;5.188;2022-07-18T02:01:35;102362.97;;;17.57;64.51
64908;BME280;51412;52.236;5.188;2022-07-18T02:04:01;102359.91;;;17.55;64.42
64908;BME280;51412;52.236;5.188;2022-07-18T02:06:28;102361.78;;;17.55;64.60
64908;BME280;51412;52.236;5.188;2022-07-18T02:08:54;102357.56;;;17.50;64.65
64908;BME280;51412;52.236;5.188;2022-07-18T02:11:21;102356.38;;;17.47;64.53
64908;BME280;51412;52.236;5.188;2022-07-18T02:13:49;102351.34;;;17.42;64.69
64908;BME280;51412;52.236;5.188;2022-07-18T02:16:16;102348.28;;;17.40;64.76
64908;BME280;51412;52.236;5.188;2022-07-18T02:18:42;102346.69;;;17.36;65.06
64908;BME280;51412;52.236;5.188;2022-07-18T02:21:09;102349.38;;;17.32;65.20
64908;BME280;51412;52.236;5.188;2022-07-18T02:23:36;102342.81;;;17.29;65.19
64908;BME280;51412;52.236;5.188;2022-07-18T02:26:02;102340.84;;;17.26;65.37
64908;BME280;51412;52.236;5.188;2022-07-18T02:28:29;102341.25;;;17.28;65.41
64908;BME280;51412;52.236;5.188;2022-07-18T02:30:57;102333.16;;;17.21;65.54
64908;BME280;51412;52.236;5.188;2022-07-18T02:33:23;102340.06;;;17.22;65.46
64908;BME280;51412;52.236;5.188;2022-07-18T02:35:50;102332.69;;;17.15;65.47
64908;BME280;51412;52.236;5.188;2022-07-18T02:38:18;102341.22;;;17.21;65.21
64908;BME280;51412;52.236;5.188;2022-07-18T02:40:44;102338.53;;;17.21;65.65
64908;BME280;51412;52.236;5.188;2022-07-18T02:43:11;102339.25;;;17.18;65.80
64908;BME280;51412;52.236;5.188;2022-07-18T02:45:38;102336.19;;;17.20;65.94
64908;BME280;51412;52.236;5.188;2022-07-18T02:48:05;102335.44;;;17.19;65.75
64908;BME280;51412;52.236;5.188;2022-07-18T02:50:32;102336.56;;;17.18;65.73
64908;BME280;51412;52.236;5.188;2022-07-18T02:52:58;102331.94;;;17.15;65.99
64908;BME280;51412;52.236;5.188;2022-07-18T02:55:25;102338.44;;;17.10;65.95
64908;BME280;51412;52.236;5.188;2022-07-18T02:57:52;102337.63;;;17.06;66.17
64908;BME280;51412;52.236;5.188;2022-07-18T03:00:18;102328.41;;;17.04;66.40
64908;BME280;51412;52.236;5.188;2022-07-18T03:02:45;102330.69;;;17.02;66.48
64908;BME280;51412;52.236;5.188;2022-07-18T03:05:13;102327.59;;;16.99;66.72
64908;BME280;51412;52.236;5.188;2022-07-18T03:07:40;102342.16;;;16.98;66.60
64908;BME280;51412;52.236;5.188;2022-07-18T03:10:07;102335.25;;;16.97;66.47
64908;BME280;51412;52.236;5.188;2022-07-18T03:12:34;102331.41;;;16.98;66.39
64908;BME280;51412;52.236;5.188;2022-07-18T03:15:00;102327.19;;;16.97;66.47
64908;BME280;51412;52.236;5.188;2022-07-18T03:17:26;102318.31;;;16.93;66.66
64908;BME280;51412;52.236;5.188;2022-07-18T03:19:53;102305.28;;;16.92;66.27
64908;BME280;51412;52.236;5.188;2022-07-18T03:22:21;102311.41;;;16.92;66.37
64908;BME280;51412;52.236;5.188;2022-07-18T03:24:47;102299.84;;;16.88;66.45
64908;BME280;51412;52.236;5.188;2022-07-18T03:27:14;102306.34;;;16.87;66.66
64908;BME280;51412;52.236;5.188;2022-07-18T03:29:40;102310.56;;;16.84;65.96
64908;BME280;51412;52.236;5.188;2022-07-18T03:32:07;102304.34;;;16.80;66.18
64908;BME280;51412;52.236;5.188;2022-07-18T03:34:33;102301.31;;;16.82;65.97
64908;BME280;51412;52.236;5.188;2022-07-18T03:37:00;102296.72;;;16.82;65.88
64908;BME280;51412;52.236;5.188;2022-07-18T03:39:28;102293.22;;;16.78;65.75
64908;BME280;51412;52.236;5.188;2022-07-18T03:41:54;102290.94;;;16.80;65.74
64908;BME280;51412;52.236;5.188;2022-07-18T03:44:21;102270.53;;;16.72;65.74
64908;BME280;51412;52.236;5.188;2022-07-18T03:46:47;102270.19;;;16.77;65.40
64908;BME280;51412;52.236;5.188;2022-07-18T03:49:14;102274.47;;;16.82;65.46
64908;BME280;51412;52.236;5.188;2022-07-18T03:51:40;102267.94;;;16.83;65.17
64908;BME280;51412;52.236;5.188;2022-07-18T03:54:07;102266.81;;;16.84;65.08
64908;BME280;51412;52.236;5.188;2022-07-18T03:56:36;102269.09;;;16.82;65.27
64908;BME280;51412;52.236;5.188;2022-07-18T03:59:03;102263.38;;;16.83;65.25
64908;BME280;51412;52.236;5.188;2022-07-18T04:01:29;102253.00;;;16.86;65.56
64908;BME280;51412;52.236;5.188;2022-07-18T04:03:56;102265.38;;;16.90;65.29
64908;BME280;51412;52.236;5.188;2022-07-18T04:06:22;102250.31;;;16.82;65.09
64908;BME280;51412;52.236;5.188;2022-07-18T04:08:49;102263.47;;;16.94;65.29
64908;BME280;51412;52.236;5.188;2022-07-18T04:11:15;102259.25;;;16.93;65.42
64908;BME280;51412;52.236;5.188;2022-07-18T04:13:46;102252.06;;;17.08;67.14
64908;BME280;51412;52.236;5.188;2022-07-18T04:16:12;102262.63;;;17.35;66.77
64908;BME280;51412;52.236;5.188;2022-07-18T04:18:39;102263.50;;;17.54;65.93
64908;BME280;51412;52.236;5.188;2022-07-18T04:21:05;102266.25;;;17.68;64.86
64908;BME280;51412;52.236;5.188;2022-07-18T04:23:32;102267.84;;;17.80;64.42
64908;BME280;51412;52.236;5.188;2022-07-18T04:25:58;102261.31;;;17.84;63.82
64908;BME280;51412;52.236;5.188;2022-07-18T04:28:27;102258.66;;;17.88;63.70
64908;BME280;51412;52.236;5.188;2022-07-18T04:30:55;102253.72;;;17.97;63.27
64908;BME280;51412;52.236;5.188;2022-07-18T04:33:23;102268.75;;;18.06;62.99
64908;BME280;51412;52.236;5.188;2022-07-18T04:35:50;102264.53;;;18.08;62.54
64908;BME280;51412;52.236;5.188;2022-07-18T04:38:16;102263.38;;;18.13;62.33
64908;BME280;51412;52.236;5.188;2022-07-18T04:40:43;102272.22;;;18.17;62.25
64908;BME280;51412;52.236;5.188;2022-07-18T04:43:09;102271.88;;;18.18;62.08
64908;BME280;51412;52.236;5.188;2022-07-18T04:45:36;102271.50;;;18.20;62.04
64908;BME280;51412;52.236;5.188;2022-07-18T04:48:05;102270.34;;;18.25;61.84
64908;BME280;51412;52.236;5.188;2022-07-18T04:50:32;102273.06;;;18.28;61.63
64908;BME280;51412;52.236;5.188;2022-07-18T04:52:59;102275.38;;;18.33;61.53
64908;BME280;51412;52.236;5.188;2022-07-18T04:55:25;102273.03;;;18.32;61.54
64908;BME280;51412;52.236;5.188;2022-07-18T04:57:53;102277.28;;;18.33;61.56
64908;BME280;51412;52.236;5.188;2022-07-18T05:00:22;102286.91;;;18.34;61.24
64908;BME280;51412;52.236;5.188;2022-07-18T05:02:51;102283.44;;;18.33;61.26
64908;BME280;51412;52.236;5.188;2022-07-18T05:05:20;102286.50;;;18.32;61.18
64908;BME280;51412;52.236;5.188;2022-07-18T05:07:47;102289.97;;;18.32;61.41
64908;BME280;51412;52.236;5.188;2022-07-18T05:10:16;102288.81;;;18.30;61.26
64908;BME280;51412;52.236;5.188;2022-07-18T05:12:44;102297.66;;;18.30;61.34
64908;BME280;51412;52.236;5.188;2022-07-18T05:15:13;102290.75;;;18.29;61.48
64908;BME280;51412;52.236;5.188;2022-07-18T05:17:40;102286.88;;;18.30;61.41
64908;BME280;51412;52.236;5.188;2022-07-18T05:20:10;102284.19;;;18.30;61.28
64908;BME280;51412;52.236;5.188;2022-07-18T05:22:38;102277.66;;;18.31;61.13
64908;BME280;51412;52.236;5.188;2022-07-18T05:25:06;102271.50;;;18.34;60.95
64908;BME280;51412;52.236;5.188;2022-07-18T05:27:33;102266.91;;;18.39;60.81
64908;BME280;51412;52.236;5.188;2022-07-18T05:30:00;102268.09;;;18.45;60.64
64908;BME280;51412;52.236;5.188;2022-07-18T05:32:27;102273.09;;;18.54;60.23
64908;BME280;51412;52.236;5.188;2022-07-18T05:34:54;102270.78;;;18.63;59.99
64908;BME280;51412;52.236;5.188;2022-07-18T05:37:20;102261.56;;;18.71;59.71
64908;BME280;51412;52.236;5.188;2022-07-18T05:39:49;102260.81;;;18.85;59.50
64908;BME280;51412;52.236;5.188;2022-07-18T05:42:16;102255.44;;;18.92;59.23
64908;BME280;51412;52.236;5.188;2022-07-18T05:44:43;102248.50;;;19.02;58.78
64908;BME280;51412;52.236;5.188;2022-07-18T05:47:09;102255.44;;;19.07;58.23
64908;BME280;51412;52.236;5.188;2022-07-18T05:49:36;102243.50;;;19.11;57.99
64908;BME280;51412;52.236;5.188;2022-07-18T05:52:03;102251.19;;;19.16;58.34
64908;BME280;51412;52.236;5.188;2022-07-18T05:54:30;102241.53;;;19.23;58.40
64908;BME280;51412;52.236;5.188;2022-07-18T05:56:58;102241.94;;;19.28;58.51
64908;BME280;51412;52.236;5.188;2022-07-18T05:59:24;102233.06;;;19.31;58.30
64908;BME280;51412;52.236;5.188;2022-07-18T06:01:51;102241.13;;;19.39;58.72
64908;BME280;51412;52.236;5.188;2022-07-18T06:04:17;102241.53;;;19.41;58.10
64908;BME280;51412;52.236;5.188;2022-07-18T06:06:43;102229.16;;;19.50;57.80
64908;BME280;51412;52.236;5.188;2022-07-18T06:09:10;102237.66;;;19.52;57.36
64908;BME280;51412;52.236;5.188;2022-07-18T06:11:38;102241.44;;;19.66;56.93
64908;BME280;51412;52.236;5.188;2022-07-18T06:14:06;102238.31;;;19.75;56.95
64908;BME280;51412;52.236;5.188;2022-07-18T06:16:32;102226.00;;;19.81;57.16
64908;BME280;51412;52.236;5.188;2022-07-18T06:18:59;102235.16;;;19.98;57.93
64908;BME280;51412;52.236;5.188;2022-07-18T06:21:26;102223.94;;;20.07;56.29
64908;BME280;51412;52.236;5.188;2022-07-18T06:23:52;102237.34;;;20.21;55.62
64908;BME280;51412;52.236;5.188;2022-07-18T06:26:19;102236.88;;;20.33;54.86
64908;BME280;51412;52.236;5.188;2022-07-18T06:28:46;102226.44;;;20.35;53.67
64908;BME280;51412;52.236;5.188;2022-07-18T06:31:15;102239.41;;;20.55;53.77
64908;BME280;51412;52.236;5.188;2022-07-18T06:33:42;102239.38;;;20.62;52.26
64908;BME280;51412;52.236;5.188;2022-07-18T06:36:09;102242.03;;;20.73;51.70
64908;BME280;51412;52.236;5.188;2022-07-18T06:38:37;102245.38;;;20.84;51.60
64908;BME280;51412;52.236;5.188;2022-07-18T06:41:04;102234.19;;;20.86;50.74
64908;BME280;51412;52.236;5.188;2022-07-18T06:43:31;102242.91;;;21.05;50.66
64908;BME280;51412;52.236;5.188;2022-07-18T06:45:57;102240.84;;;21.16;50.72
64908;BME280;51412;52.236;5.188;2022-07-18T06:48:25;102236.47;;;21.29;50.44
64908;BME280;51412;52.236;5.188;2022-07-18T06:50:58;102229.34;;;21.43;49.89
64908;BME280;51412;52.236;5.188;2022-07-18T06:53:25;102225.47;;;21.47;49.22
64908;BME280;51412;52.236;5.188;2022-07-18T06:55:51;102221.47;;;21.59;49.23
64908;BME280;51412;52.236;5.188;2022-07-18T06:58:18;102218.28;;;21.68;49.02
64908;BME280;51412;52.236;5.188;2022-07-18T07:00:44;102221.28;;;21.74;48.80
64908;BME280;51412;52.236;5.188;2022-07-18T07:03:11;102183.97;;;21.61;47.88
64908;BME280;51412;52.236;5.188;2022-07-18T07:05:39;102216.34;;;21.96;48.69
64908;BME280;51412;52.236;5.188;2022-07-18T07:08:05;102215.41;;;22.10;48.61
64908;BME280;51412;52.236;5.188;2022-07-18T07:10:32;102175.00;;;21.95;47.93
64908;BME280;51412;52.236;5.188;2022-07-18T07:12:59;102225.06;;;22.38;47.33
64908;BME280;51412;52.236;5.188;2022-07-18T07:15:25;102219.47;;;22.49;47.29
64908;BME280;51412;52.236;5.188;2022-07-18T07:17:52;102219.59;;;22.65;47.58
64908;BME280;51412;52.236;5.188;2022-07-18T07:20:20;102223.22;;;22.79;47.29
64908;BME280;51412;52.236;5.188;2022-07-18T07:22:50;102219.81;;;22.95;46.71
64908;BME280;51412;52.236;5.188;2022-07-18T07:25:18;102223.06;;;23.10;46.95
64908;BME280;51412;52.236;5.188;2022-07-18T07:27:45;102219.81;;;23.18;45.76
64908;BME280;51412;52.236;5.188;2022-07-18T07:30:12;102228.38;;;23.37;46.03
64908;BME280;51412;52.236;5.188;2022-07-18T07:32:41;102231.56;;;23.52;45.61
64908;BME280;51412;52.236;5.188;2022-07-18T07:35:10;102218.28;;;23.58;45.46
64908;BME280;51412;52.236;5.188;2022-07-18T07:37:38;102235.72;;;23.77;45.17
64908;BME280;51412;52.236;5.188;2022-07-18T07:40:08;102238.56;;;23.90;45.00
64908;BME280;51412;52.236;5.188;2022-07-18T07:42:35;102250.72;;;24.01;43.84
64908;BME280;51412;52.236;5.188;2022-07-18T07:45:02;102243.84;;;24.13;43.83
64908;BME280;51412;52.236;5.188;2022-07-18T07:47:30;102232.06;;;24.20;43.28
64908;BME280;51412;52.236;5.188;2022-07-18T07:49:57;102232.50;;;24.18;43.37
64908;BME280;51412;52.236;5.188;2022-07-18T07:52:24;102230.19;;;24.17;43.49
64908;BME280;51412;52.236;5.188;2022-07-18T07:54:54;102230.09;;;24.20;42.61
64908;BME280;51412;52.236;5.188;2022-07-18T07:57:22;102227.66;;;24.26;43.11
64908;BME280;51412;52.236;5.188;2022-07-18T07:59:49;102228.16;;;24.37;43.22
64908;BME280;51412;52.236;5.188;2022-07-18T08:02:16;102218.81;;;24.55;43.36
64908;BME280;51412;52.236;5.188;2022-07-18T08:04:43;102220.66;;;24.75;43.33
64908;BME280;51412;52.236;5.188;2022-07-18T08:07:10;102208.97;;;24.91;42.51
64908;BME280;51412;52.236;5.188;2022-07-18T08:09:37;102211.34;;;25.18;42.53
64908;BME280;51412;52.236;5.188;2022-07-18T08:12:04;102206.53;;;25.38;42.00
64908;BME280;51412;52.236;5.188;2022-07-18T08:14:33;102205.56;;;25.58;40.66
64908;BME280;51412;52.236;5.188;2022-07-18T08:17:03;102214.28;;;25.79;40.38
64908;BME280;51412;52.236;5.188;2022-07-18T08:19:31;102212.97;;;25.96;40.23
64908;BME280;51412;52.236;5.188;2022-07-18T08:21:57;102204.16;;;26.18;39.27
64908;BME280;51412;52.236;5.188;2022-07-18T08:24:24;102214.91;;;26.34;39.12
64908;BME280;51412;52.236;5.188;2022-07-18T08:26:51;102206.00;;;26.56;39.08
64908;BME280;51412;52.236;5.188;2022-07-18T08:29:17;102207.72;;;26.76;38.22
64908;BME280;51412;52.236;5.188;2022-07-18T08:31:45;102208.72;;;26.91;37.83
64908;BME280;51412;52.236;5.188;2022-07-18T08:34:12;102212.03;;;27.08;37.39
64908;BME280;51412;52.236;5.188;2022-07-18T08:36:39;102214.88;;;27.27;37.41
64908;BME280;51412;52.236;5.188;2022-07-18T08:39:06;102214.84;;;27.49;36.53
64908;BME280;51412;52.236;5.188;2022-07-18T08:41:35;102212.47;;;27.60;34.51
64908;BME280;51412;52.236;5.188;2022-07-18T08:44:04;102224.06;;;27.73;34.98
64908;BME280;51412;52.236;5.188;2022-07-18T08:46:32;102215.78;;;27.96;34.58
64908;BME280;51412;52.236;5.188;2022-07-18T08:49:01;102218.41;;;28.09;33.77
64908;BME280;51412;52.236;5.188;2022-07-18T08:51:28;102208.09;;;28.13;34.74
64908;BME280;51412;52.236;5.188;2022-07-18T08:53:55;102212.97;;;28.09;33.92
64908;BME280;51412;52.236;5.188;2022-07-18T08:56:22;102212.34;;;28.04;33.16
64908;BME280;51412;52.236;5.188;2022-07-18T08:58:48;102210.13;;;27.90;33.55
64908;BME280;51412;52.236;5.188;2022-07-18T09:01:18;102218.34;;;27.90;34.14
64908;BME280;51412;52.236;5.188;2022-07-18T09:03:44;102220.31;;;27.89;33.99
64908;BME280;51412;52.236;5.188;2022-07-18T09:06:41;102217.44;;;27.84;34.03
64908;BME280;51412;52.236;5.188;2022-07-18T09:09:11;102224.63;;;27.68;33.07
64908;BME280;51412;52.236;5.188;2022-07-18T09:11:49;102212.03;;;27.62;33.84
64908;BME280;51412;52.236;5.188;2022-07-18T09:14:36;102212.59;;;27.47;33.35
64908;BME280;51412;52.236;5.188;2022-07-18T09:17:08;102213.47;;;27.44;32.85
64908;BME280;51412;52.236;5.188;2022-07-18T09:19:36;102211.34;;;27.39;33.44
64908;BME280;51412;52.236;5.188;2022-07-18T09:22:21;102220.06;;;27.34;33.22
64908;BME280;51412;52.236;5.188;2022-07-18T09:24:56;102200.78;;;27.28;34.44
64908;BME280;51412;52.236;5.188;2022-07-18T09:27:34;102192.91;;;27.30;34.83
64908;BME280;51412;52.236;5.188;2022-07-18T09:30:14;102198.50;;;27.27;33.91
64908;BME280;51412;52.236;5.188;2022-07-18T09:32:43;102202.88;;;27.24;34.26
64908;BME280;51412;52.236;5.188;2022-07-18T09:35:12;102206.00;;;27.13;33.67
64908;BME280;51412;52.236;5.188;2022-07-18T09:37:40;102204.78;;;27.14;33.81
64908;BME280;51412;52.236;5.188;2022-07-18T09:40:19;102206.38;;;27.25;33.45
64908;BME280;51412;52.236;5.188;2022-07-18T09:42:48;102199.06;;;27.44;32.41
64908;BME280;51412;52.236;5.188;2022-07-18T09:45:21;102191.91;;;27.78;32.95
64908;BME280;51412;52.236;5.188;2022-07-18T09:47:49;102192.28;;;28.08;32.77
64908;BME280;51412;52.236;5.188;2022-07-18T09:50:20;102194.94;;;28.39;31.79
64908;BME280;51412;52.236;5.188;2022-07-18T09:52:57;102192.66;;;28.75;32.12
64908;BME280;51412;52.236;5.188;2022-07-18T09:55:24;102189.56;;;29.10;32.18
64908;BME280;51412;52.236;5.188;2022-07-18T09:58:01;102193.47;;;29.36;31.69
64908;BME280;51412;52.236;5.188;2022-07-18T10:00:29;102187.84;;;29.64;31.34
64908;BME280;51412;52.236;5.188;2022-07-18T10:02:57;102179.53;;;29.83;29.76
64908;BME280;51412;52.236;5.188;2022-07-18T10:05:25;102171.41;;;29.98;29.87
64908;BME280;51412;52.236;5.188;2022-07-18T10:07:52;102181.50;;;30.31;29.88
64908;BME280;51412;52.236;5.188;2022-07-18T10:10:20;102176.47;;;30.53;29.15
64908;BME280;51412;52.236;5.188;2022-07-18T10:12:51;102184.94;;;30.80;29.14
64908;BME280;51412;52.236;5.188;2022-07-18T10:15:20;102179.78;;;31.02;29.15
64908;BME280;51412;52.236;5.188;2022-07-18T10:17:47;102176.00;;;31.15;28.78
64908;BME280;51412;52.236;5.188;2022-07-18T10:20:14;102177.22;;;31.29;28.66
64908;BME280;51412;52.236;5.188;2022-07-18T10:22:42;102173.22;;;31.45;27.71
64908;BME280;51412;52.236;5.188;2022-07-18T10:25:13;102173.84;;;31.54;27.55
64908;BME280;51412;52.236;5.188;2022-07-18T10:27:53;102174.69;;;31.61;26.64
64908;BME280;51412;52.236;5.188;2022-07-18T10:30:35;102178.09;;;31.70;27.61
64908;BME280;51412;52.236;5.188;2022-07-18T10:33:02;102174.25;;;31.83;26.38
64908;BME280;51412;52.236;5.188;2022-07-18T10:36:02;102171.38;;;31.92;26.62
64908;BME280;51412;52.236;5.188;2022-07-18T10:38:28;102175.47;;;32.02;26.36
64908;BME280;51412;52.236;5.188;2022-07-18T10:41:03;102171.69;;;32.00;24.80
64908;BME280;51412;52.236;5.188;2022-07-18T10:43:40;102167.06;;;32.12;25.50
64908;BME280;51412;52.236;5.188;2022-07-18T10:46:10;102170.94;;;32.20;25.41
64908;BME280;51412;52.236;5.188;2022-07-18T10:48:54;102150.72;;;32.23;25.33
64908;BME280;51412;52.236;5.188;2022-07-18T10:51:32;102167.88;;;32.38;23.51
64908;BME280;51412;52.236;5.188;2022-07-18T10:54:11;102157.78;;;32.56;24.26
64908;BME280;51412;52.236;5.188;2022-07-18T10:57:09;102166.53;;;32.81;24.36
64908;BME280;51412;52.236;5.188;2022-07-18T10:59:59;102157.69;;;33.03;23.75
64908;BME280;51412;52.236;5.188;2022-07-18T11:02:36;102165.84;;;33.23;25.45
64908;BME280;51412;52.236;5.188;2022-07-18T11:05:33;102166.69;;;33.35;23.81
64908;BME280;51412;52.236;5.188;2022-07-18T11:08:16;102162.25;;;33.44;23.24
64908;BME280;51412;52.236;5.188;2022-07-18T11:11:06;102153.72;;;33.47;21.62
64908;BME280;51412;52.236;5.188;2022-07-18T11:13:34;102145.78;;;33.66;23.01
64908;BME280;51412;52.236;5.188;2022-07-18T11:16:03;102150.56;;;33.71;21.23
64908;BME280;51412;52.236;5.188;2022-07-18T11:18:32;102152.06;;;33.67;21.64
64908;BME280;51412;52.236;5.188;2022-07-18T11:20:59;102147.72;;;33.49;22.01
64908;BME280;51412;52.236;5.188;2022-07-18T11:23:27;102142.88;;;33.32;21.60
64908;BME280;51412;52.236;5.188;2022-07-18T11:25:57;102137.63;;;33.34;22.64
64908;BME280;51412;52.236;5.188;2022-07-18T11:28:24;102142.91;;;33.38;22.62
64908;BME280;51412;52.236;5.188;2022-07-18T11:31:03;102132.97;;;33.52;22.89
64908;BME280;51412;52.236;5.188;2022-07-18T11:33:32;102133.75;;;33.64;21.99
64908;BME280;51412;52.236;5.188;2022-07-18T11:36:05;102132.59;;;33.82;22.77
64908;BME280;51412;52.236;5.188;2022-07-18T11:38:31;102136.13;;;33.94;23.40
64908;BME280;51412;52.236;5.188;2022-07-18T11:40:58;102134.44;;;34.07;22.70
64908;BME280;51412;52.236;5.188;2022-07-18T11:43:26;102130.66;;;34.22;22.67
64908;BME280;51412;52.236;5.188;2022-07-18T11:46:05;102130.50;;;34.43;22.63
64908;BME280;51412;52.236;5.188;2022-07-18T11:48:33;102124.97;;;34.54;23.12
64908;BME280;51412;52.236;5.188;2022-07-18T11:51:00;102125.22;;;34.56;22.54
64908;BME280;51412;52.236;5.188;2022-07-18T11:53:27;102119.44;;;34.48;22.95
64908;BME280;51412;52.236;5.188;2022-07-18T11:55:55;102115.91;;;34.48;22.33
64908;BME280;51412;52.236;5.188;2022-07-18T11:58:22;102123.72;;;34.49;22.42
64908;BME280;51412;52.236;5.188;2022-07-18T12:00:48;102114.16;;;34.45;21.64
64908;BME280;51412;52.236;5.188;2022-07-18T12:03:19;102109.59;;;34.24;23.59
64908;BME280;51412;52.236;5.188;2022-07-18T12:05:49;102116.41;;;34.29;23.29
64908;BME280;51412;52.236;5.188;2022-07-18T12:08:30;102109.09;;;34.26;22.82
64908;BME280;51412;52.236;5.188;2022-07-18T12:11:18;102102.38;;;34.38;22.44
64908;BME280;51412;52.236;5.188;2022-07-18T12:13:53;102105.91;;;34.56;22.28
64908;BME280;51412;52.236;5.188;2022-07-18T12:16:25;102103.38;;;34.58;22.46
64908;BME280;51412;52.236;5.188;2022-07-18T12:18:54;102095.06;;;34.30;22.07
64908;BME280;51412;52.236;5.188;2022-07-18T12:21:21;102102.34;;;34.16;23.61
64908;BME280;51412;52.236;5.188;2022-07-18T12:23:48;102095.56;;;34.22;23.58
64908;BME280;51412;52.236;5.188;2022-07-18T12:26:28;102093.09;;;34.30;22.97
64908;BME280;51412;52.236;5.188;2022-07-18T12:29:06;102101.59;;;34.27;23.01
64908;BME280;51412;52.236;5.188;2022-07-18T12:31:37;102089.34;;;34.39;23.31
64908;BME280;51412;52.236;5.188;2022-07-18T12:34:10;102099.88;;;34.40;23.17
64908;BME280;51412;52.236;5.188;2022-07-18T12:39:27;102085.34;;;34.34;23.98
64908;BME280;51412;52.236;5.188;2022-07-18T12:41:55;102097.59;;;34.45;22.72
64908;BME280;51412;52.236;5.188;2022-07-18T12:44:22;102091.56;;;34.52;22.93
64908;BME280;51412;52.236;5.188;2022-07-18T12:46:49;102090.09;;;34.56;23.51
64908;BME280;51412;52.236;5.188;2022-07-18T12:49:17;102090.31;;;34.70;23.52
64908;BME280;51412;52.236;5.188;2022-07-18T12:51:48;102079.28;;;34.70;23.09
64908;BME280;51412;52.236;5.188;2022-07-18T12:54:16;102085.81;;;34.84;23.49
64908;BME280;51412;52.236;5.188;2022-07-18T12:56:42;102070.22;;;34.92;22.40
64908;BME280;51412;52.236;5.188;2022-07-18T12:59:09;102070.47;;;34.94;22.09
64908;BME280;51412;52.236;5.188;2022-07-18T13:01:36;102074.72;;;35.01;22.14